Alpha, California Weather observations

Data are for observation ending at time listed.
 Day   Time    Ave.   Ave.  Ave.  Vector   Max.   Stn.    Total    Solar   Ave.   Snow 
  of    of     Air    Rel.  Wind   Wind    Wind   Baro.  Precip.   Rad.    Soil   Depth
Year   Day     Temp.  Hum.  Speed  Dir.    Gust   Pres.                    Temp.       
2015   (PST)    F      %     mph   deg.    mph     mb.     in.     W/m2     F      in. 
---------------------------------------------------------------------------------------  
  26   19:40   41.5    56    1.8   210      2.6   786.8    0.00       0    999.0   14.1
  26   19:50   41.7    50    1.8   234      3.1   786.7    0.00       0    999.0   13.9
  26   20:00   42.1    42    1.5   265      2.9   786.5    0.00       0    999.0   14.5
  26   20:10   41.7    48    1.3   328      2.6   786.2    0.00       0    999.0   14.3
  26   20:20   41.2    49    0.8   334      2.5   786.3    0.00       0    999.0   14.4
  26   20:30   41.1    47    0.0     0      0.0   786.4    0.00       0    999.0   14.5
  26   20:40   41.2    46    1.7   238      3.2   786.4    0.00       0    999.0   14.1
  26   20:50   41.3    49    2.0   234      3.7   786.5    0.00       0    999.0   14.4
  26   21:00   41.1    50    2.1   236      4.3   786.5    0.00       0    999.0   14.4
  26   21:10   41.0    49    2.2   241      3.2   786.5    0.00       0    999.0   14.1
  26   21:20   40.8    46    1.3   257      2.7   786.3    0.00       0    999.0   14.6
  26   21:30   40.5    47    0.7   261      2.6   786.3    0.00       0    999.0   14.1
  26   21:40   40.4    46    1.7   247      3.5   786.3    0.00       0    999.0   14.5
  26   21:50   40.4    44    1.9   243      3.4   786.3    0.00       0    999.0   14.5
  26   22:00   40.4    45    1.7   244      3.0   786.3    0.00       0    999.0   14.5
  26   22:10   40.3    46    2.2   210      4.2   786.4    0.00       0    999.0   14.3
  26   22:20   40.2    47    2.9   180      3.7   786.5    0.00       0    999.0   14.5
  26   22:30   40.2    48    2.7   176      3.9   786.5    0.00       0    999.0   14.5
  26   22:40   40.1    48    3.0   184      4.7   786.5    0.00       0    999.0   14.4
  26   22:50   40.0    46    3.2   185      4.5   786.5    0.00       0    999.0   14.5
  26   23:00   40.1    43    2.6   179      4.6   786.5    0.00       0    999.0   14.4
  26   23:10   40.3    38    0.5   178      2.3   786.4    0.00       0    999.0   14.4
  26   23:20   40.0    34    0.9   209      2.3   786.4    0.00       0    999.0   14.5
  26   23:30   40.3    31    1.2   216      2.1   786.5    0.00       0    999.0   74.2
  26   23:40   40.4    31    0.8   254      2.7   786.3    0.00       0    999.0  161.7
  26   23:50   40.3    32    1.0   253      2.3   786.3    0.00       0    999.0  115.6
  27    0:00   40.4    32    1.2   279      2.1   786.2    0.00       0    999.0   14.9
  27    0:10   40.4    32    1.0   287      2.1   786.2    0.00       0    999.0  118.2
  27    0:20   40.2    33    0.6   276      2.0   786.2    0.00       0    999.0   43.3
  27    0:30   40.1    34    0.9   272      5.4   786.2    0.00       0    999.0   14.7
  27    0:40   40.2    34    1.1   273      3.1   786.2    0.00       0    999.0   14.7
  27    0:50   40.1    34    0.9   284      1.8   786.2    0.00       0    999.0   14.6
  27    1:00   39.9    35    0.6   290      2.4   786.0    0.00       0    999.0   14.6
  27    1:10   39.7    35    0.4   287      2.0   786.0    0.00       0    999.0   14.7
  27    1:20   39.5    35    0.7   286      3.9   786.0    0.00       0    999.0   14.5
  27    1:30   39.3    35    1.3   302      3.4   785.9    0.00       0    999.0   14.6
  27    1:40   39.1    36    1.7   292      3.7   785.9    0.00       0    999.0   14.7
  27    1:50   38.8    38    1.5   289      3.2   785.9    0.00       0    999.0   88.8
  27    2:00   38.6    41    1.1   289      2.8   786.0    0.00       0    999.0  161.7
  27    2:10   38.4    44    1.0   271      2.7   786.0    0.00       0    999.0  161.6
  27    2:20   38.3    45    0.9   270      2.2   786.0    0.00       0    999.0   43.2
  27    2:30   38.1    45    1.1   294      2.4   785.9    0.00       0    999.0   14.7
  27    2:40   37.8    45    1.0   303      3.6   785.9    0.00       0    999.0   14.8
  27    2:50   37.6    45    1.2   309      2.7   786.0    0.00       0    999.0   14.8
  27    3:00   37.2    45    1.2   323      1.9   786.0    0.00       0    999.0   14.7
  27    3:10   36.7    47    1.1   322      2.2   786.0    0.00       0    999.0   14.8
  27    3:20   36.4    48    1.2   292      4.4   786.0    0.00       0    999.0   14.8
  27    3:30   36.5    49    1.1   252      3.3   786.1    0.00       0    999.0   14.7
  27    3:40   36.4    50    0.7   252      1.9   786.0    0.00       0    999.0   14.5
  27    3:50   36.1    51    0.4   264      2.9   786.0    0.00       0    999.0   14.8
  27    4:00   35.9    52    0.8   263      2.8   786.0    0.00       0    999.0   14.8
  27    4:10   35.7    57    2.0   234      4.1   786.1    0.00       0    999.0   14.8
  27    4:20   35.2    64    2.0   226      4.0   786.1    0.00       0    999.0   44.2
  27    4:30   34.9    67    0.7   226      2.3   786.0    0.00       0    999.0   85.6
  27    4:40   34.8    68    1.6   196      3.1   785.9    0.00       0    999.0   14.5
  27    4:50   34.7    68    2.3   184      3.4   785.9    0.00       0    999.0   14.4
  27    5:00   34.6    69    1.9   170      2.7   786.0    0.00       0    999.0   14.5
  27    5:10   34.4    72    2.3   196      5.3   786.0    0.00       0    999.0   14.5
  27    5:20   34.2    73    1.2   232      3.3   786.1    0.00       0    999.0   14.5
  27    5:30   34.1    74    1.1   266      3.9   786.2    0.00       0    999.0   14.5
  27    5:40   33.9    76    1.7   266      4.8   786.2    0.00       0    999.0   14.4
  27    5:50   33.6    79    1.9   242      4.7   786.3    0.00       0    999.0   14.3
  27    6:00   33.3    81    2.0   253      5.5   786.4    0.00       0    999.0   14.6
  27    6:10   32.9    84    1.8   236      5.4   786.5    0.00       0    999.0   14.5
  27    6:20   32.4    85    2.1   236      5.6   786.7    0.00       0    999.0   14.3
  27    6:30   32.1    86    1.7   226      4.6   786.9    0.00       0    999.0   13.4
  27    6:40   31.8    87    1.6   246      4.9   787.0    0.00       0    999.0   11.5
  27    6:50   31.4    88    2.1   233      5.9   787.1    0.00       0    999.0   11.3
  27    7:00   30.9    91    1.7   272      5.0   787.1    0.00       0    999.0   11.3
  27    7:10   30.6    92    1.9   282      5.0   787.2    0.00       0    999.0   12.1
  27    7:20   30.4    93    1.5   283      3.4   787.3    0.00       0    999.0   11.5
  27    7:30   29.6    94    2.0   311      6.2   787.5    0.00       2    999.0  108.5
  27    7:40   28.8    93    1.7   315      3.4   787.6    0.00       3    999.0  172.5
  27    7:50   28.7    94    1.1   302      3.1   787.7    0.00       4    999.0  172.5
  27    8:00   28.6    94    1.6   306      3.1   787.8    0.00       7    999.0  172.5
  27    8:10   28.5    94    1.0   317      3.0   787.8    0.00       8    999.0  172.5
  27    8:20   28.5    94    0.9   307      2.3   787.9    0.00      10    999.0  172.5
  27    8:30   28.4    94    0.6   296      2.0   787.9    0.00      13    999.0  172.5
  27    8:40   28.4    94    0.7   266      2.8   788.0    0.00      16    999.0  172.5
  27    8:50   28.5    94    0.7   234      2.3   788.1    0.00      14    999.0  172.5
  27    9:00   28.6    94    0.7   245      3.2   788.1    0.00      14    999.0  172.5
  27    9:10   28.5    94    1.4   222      2.9   788.2    0.00      13    999.0  172.5
  27    9:20   28.5    94    1.1   230      2.9   788.3    0.00      12    999.0  172.5
  27    9:30   28.5    94    0.9   263      2.5   788.4    0.00      11    999.0  172.5
  27    9:40   28.6    94    1.2   266      2.6   788.5    0.00      14    999.0  172.5
  27    9:50   28.9    94    0.4   283      1.4   788.6    0.00      18    999.0  172.5
  27   10:00   29.3    93    0.0     0      0.0   788.7    0.00      18    999.0  172.5
  27   10:10   29.5    92    0.0     0      0.0   788.8    0.00      16    999.0  172.5
  27   10:20   29.4    92    0.0     0      0.0   788.9    0.00      16    999.0  172.5
  27   10:30   29.3    92    0.0     0      0.0   788.9    0.00      17    999.0  172.5
  27   10:40   29.4    92    0.0     0      0.0   788.9    0.00      16    999.0  171.7
  27   10:50   29.6    92    0.0     0      0.0   789.0    0.00      18    999.0  157.2
  27   11:00   30.0    92    0.0     0      0.0   789.0    0.00      21    999.0  172.5
  27   11:10   30.1    91    0.0     0      0.0   789.0    0.00      19    999.0  171.7
  27   11:20   29.9    91    0.0     0      0.0   789.1    0.00      17    999.0  157.2
  27   11:30   29.9    91    0.0     0      0.0   789.1    0.00      17    999.0  172.5
  27   11:40   30.0    91    0.0     0      0.0   789.0    0.00      15    999.0  172.5
  27   11:50   30.1    92    0.0     0      0.0   789.0    0.00      17    999.0  172.5
  27   12:00   30.4    91    0.0     0      0.0   788.9    0.00      21    999.0  172.5
  27   12:10   30.7    90    0.0     0      0.0   788.8    0.00      20    999.0  172.5
  27   12:20   30.8    91    0.0     0      0.0   788.7    0.00      18    999.0  172.5
  27   12:30   30.9    91    0.6   342      4.8   788.7    0.00      16    999.0  172.5
  27   12:40   30.9    91    2.1   341      6.4   788.6    0.00      18    999.0  172.5
  27   12:50   30.9    92    1.9   345      7.1   788.5    0.00      21    999.0  172.5
  27   13:00   31.0    91    2.0   343      6.4   788.6    0.00      23    999.0  172.5
  27   13:10   31.0    90    1.9   341      5.3   788.6    0.00      21    999.0  172.5
  27   13:20   30.6    90    1.9   343      4.6   788.6    0.00      18    999.0  172.5
  27   13:30   30.6    90    1.8   344      6.3   788.5    0.00      19    999.0  172.5
  27   13:40   30.8    90    2.0   346      3.9   788.5    0.00      24    999.0  172.5
  27   13:50   31.0    89    2.1   350      5.9   788.5    0.00      26    999.0  172.5
  27   14:00   31.0    87    3.0   353      7.9   788.5    0.00      26    999.0  172.5
  27   14:10   30.9    86    3.4   359      8.0   788.5    0.00      28    999.0  172.5
  27   14:20   31.6    83    2.6   358      7.1   788.6    0.00      39    999.0  172.5
  27   14:30   33.3    80    1.3   328      3.4   788.7    0.00      42    999.0  172.5
  27   14:40   34.0    78    1.2   338      5.0   788.8    0.00      33    999.0  172.5
  27   14:50   33.3    79    1.2   343      2.9   788.9    0.00      29    999.0  172.5
  27   15:00   33.3    81    0.7   328      2.3   788.9    0.00      29    999.0  171.0
  27   15:10   33.3    78    1.1   338      5.6   788.9    0.00      28    999.0  172.5
  27   15:20   33.1    78    0.8   352      2.3   788.9    0.00      25    999.0  172.5
  27   15:30   33.7    75    0.5   341      2.8   788.9    0.00      21    999.0  165.6
  27   15:40   33.9    76    0.4   336      1.7   789.0    0.00      24    999.0  171.1
  27   15:50   33.4    78    0.8   324      3.4   789.1    0.00      21    999.0  172.5
  27   16:00   33.2    79    0.9   321      2.3   789.1    0.00      19    999.0  172.5
  27   16:10   32.5    82    0.6   325      2.0   789.2    0.00      12    999.0  172.5
  27   16:20   32.0    84    0.3   341      1.0   789.1    0.00      10    999.0  172.5
  27   16:30   31.4    87    0.7   351      1.8   789.0    0.00       8    999.0  172.5
  27   16:40   31.1    88    0.2   349      0.8   789.0    0.00       6    999.0  172.5
  27   16:50   30.7    88    0.2   326      1.2   789.1    0.00       4    999.0  172.5
  27   17:00   30.3    89    0.1   326      0.7   789.2    0.00       2    999.0  172.5
  27   17:10   29.8    90    0.5   354      2.3   789.2    0.00       1    999.0  172.5
  27   17:20   29.6    91    0.9   358      2.3   789.2    0.00       1    999.0  172.5
  27   17:30   29.7    92    0.6   353      3.0   789.2    0.00       0    999.0  172.5
  27   17:40   29.7    88    1.2   352      4.2   789.3    0.00       0    999.0  172.5
  27   17:50   29.7    86    2.2   357      5.0   789.2    0.00       0    999.0  172.5
  27   18:00   29.7    83    3.2     6      9.5   789.2    0.00       0    999.0  172.5
  27   18:10   29.6    81    3.7    14      7.6   789.2    0.00       0    999.0  172.5
  27   18:20   29.8    78    4.0    10      9.9   789.2    0.00       0    999.0  172.5
  27   18:30   29.9    78    3.7    12      7.0   789.2    0.00       0    999.0  172.5
  27   18:40   30.1    77    4.2    16      9.6   789.3    0.00       0    999.0  172.5
  27   18:50   30.8    74    4.0    16     10.2   789.3    0.00       0    999.0  172.5
  27   19:00   31.0    73    2.7    11      7.0   789.5    0.00       0    999.0  172.5
  27   19:10   30.8    75    1.4   343      5.8   789.6    0.00       0    999.0  172.5
  27   19:20   30.3    75    0.9   348      2.3   789.6    0.00       0    999.0  172.5
  27   19:30   29.7    77    2.0   358      5.1   789.5    0.00       0    999.0  172.5

Return to Alpha graphs page.


Western Regional Climate Center,wrcc@dri.edu